Time;durP1;ratioP1;P1;durP2;ratioP2;P2;SDS_P1;SDS_P2;PMS_P1;PMS_P2;Temp;Humidity;BMP_temperature;BMP_pressure;BME280_temperature;BME280_humidity;BME280_pressure;Samples;Min_cycle;Max_cycle;Signal;HPM_P1;HPM_P2
2023/08/27 00:01:06;;;;;;;9.63;7.97;;;;;;;26.43;49.22;99132.00;5116645;27;20027;-74
2023/08/27 00:03:31;;;;;;;13.13;8.48;;;;;;;26.53;48.61;99136.63;5135045;27;20403;-74
2023/08/27 00:05:57;;;;;;;15.43;8.40;;;;;;;26.40;49.06;99127.19;5135254;27;20027;-74
2023/08/27 00:08:22;;;;;;;12.48;8.20;;;;;;;26.42;48.90;99118.94;5134873;27;20102;-74
2023/08/27 00:10:47;;;;;;;11.18;7.32;;;;;;;26.48;48.86;99135.13;5116513;27;20041;-74
2023/08/27 00:13:13;;;;;;;13.25;8.02;;;;;;;26.40;48.81;99122.22;5133280;27;20053;-74
2023/08/27 00:15:46;;;;;;;10.07;8.30;;;;;;;26.41;49.26;99129.56;5115677;27;20050;-74
2023/08/27 00:18:12;;;;;;;11.65;8.40;;;;;;;25.97;50.14;99129.91;5116311;27;20164;-74
2023/08/27 00:20:39;;;;;;;15.00;8.88;;;;;;;24.83;53.45;99126.47;5116371;27;20023;-74
2023/08/27 00:23:04;;;;;;;12.98;9.60;;;;;;;24.72;54.31;99129.53;5134564;27;20086;-74
2023/08/27 00:25:30;;;;;;;9.85;8.50;;;;;;;24.77;54.93;99137.59;5134654;27;20023;-74
2023/08/27 00:27:55;;;;;;;12.65;9.30;;;;;;;24.73;55.13;99131.94;5134352;27;20027;-74
2023/08/27 00:30:21;;;;;;;15.90;8.70;;;;;;;24.90;54.56;99123.47;5133237;27;20439;-74
2023/08/27 00:32:46;;;;;;;10.90;8.77;;;;;;;25.07;54.78;99122.25;5134466;27;20027;-74
2023/08/27 00:35:12;;;;;;;13.07;7.68;;;;;;;25.35;53.72;99119.97;5134531;27;20027;-74
2023/08/27 00:37:37;;;;;;;10.20;9.07;;;;;;;25.31;53.63;99130.69;5134194;27;20026;-74
2023/08/27 00:40:04;;;;;;;14.25;8.68;;;;;;;24.88;55.39;99125.97;5134345;27;20027;-74
2023/08/27 00:42:29;;;;;;;12.70;8.70;;;;;;;24.90;55.41;99120.59;5134241;27;20117;-74
2023/08/27 00:44:55;;;;;;;12.60;8.07;;;;;;;25.12;54.71;99112.31;5115766;27;20570;-74
2023/08/27 00:47:20;;;;;;;11.45;8.27;;;;;;;25.22;54.39;99104.75;5114609;27;20020;-75
2023/08/27 00:49:46;;;;;;;11.27;8.30;;;;;;;25.18;54.61;99106.88;5116319;27;20118;-74
2023/08/27 00:52:16;;;;;;;15.32;8.80;;;;;;;24.87;55.06;99095.75;5134124;27;20027;-75
2023/08/27 00:54:41;;;;;;;15.57;8.85;;;;;;;24.14;57.73;99097.22;5115758;27;20411;-75
2023/08/27 00:57:08;;;;;;;12.30;8.52;;;;;;;23.56;59.37;99090.44;5133850;27;20051;-75
2023/08/27 00:59:34;;;;;;;14.70;8.43;;;;;;;23.60;58.56;99090.38;5133933;27;20040;-75
2023/08/27 01:01:59;;;;;;;11.50;8.63;;;;;;;23.46;59.23;99090.63;5132514;27;20479;-75
2023/08/27 01:04:25;;;;;;;12.98;8.60;;;;;;;23.14;60.40;99090.66;5131750;27;20034;-74
2023/08/27 01:06:50;;;;;;;16.42;10.98;;;;;;;23.05;59.96;99104.66;5133949;27;20055;-75
2023/08/27 01:09:32;;;;;;;18.27;9.45;;;;;;;22.97;60.29;99098.25;5115322;27;20037;-74
2023/08/27 01:12:35;;;;;;;14.30;9.95;;;;;;;22.77;61.10;99100.97;5133780;27;20023;-75
2023/08/27 01:15:04;;;;;;;16.70;9.35;;;;;;;22.71;61.06;99085.59;5134011;27;20026;-75
2023/08/27 01:17:31;;;;;;;14.70;9.38;;;;;;;22.63;61.07;99082.03;5133661;27;20023;-74
2023/08/27 01:19:57;;;;;;;16.55;9.77;;;;;;;22.96;60.59;99095.84;5113684;27;20377;-74
2023/08/27 01:22:22;;;;;;;13.70;9.50;;;;;;;22.80;61.81;99087.91;5112155;28;20036;-75
2023/08/27 01:24:48;;;;;;;12.05;9.60;;;;;;;22.76;61.72;99082.25;5112741;28;20061;-74
2023/08/27 01:27:27;;;;;;;19.30;9.55;;;;;;;22.71;62.22;99094.13;5093443;28;20038;-74
2023/08/27 01:30:04;;;;;;;13.27;9.00;;;;;;;22.51;63.15;99091.16;5112854;28;20023;-75
2023/08/27 01:32:45;;;;;;;14.10;9.57;;;;;;;22.42;63.48;99086.72;5112024;28;20030;-74
2023/08/27 01:35:13;;;;;;;13.73;10.45;;;;;;;22.47;63.08;99088.31;5112957;28;20026;-75
2023/08/27 01:37:38;;;;;;;9.88;8.70;;;;;;;22.38;63.45;99083.09;5107611;27;20023;-75
2023/08/27 01:40:07;;;;;;;16.98;9.10;;;;;;;22.50;63.09;99087.47;5133134;27;20033;-75
2023/08/27 01:42:35;;;;;;;12.60;9.55;;;;;;;22.37;63.86;99092.09;5133183;27;20046;-74
2023/08/27 01:45:01;;;;;;;10.63;9.25;;;;;;;22.29;63.74;99088.53;5133038;27;20028;-74
2023/08/27 01:47:26;;;;;;;16.05;9.77;;;;;;;22.06;63.58;99092.84;5114463;27;20513;-75
2023/08/27 01:49:52;;;;;;;14.73;9.25;;;;;;;21.97;63.87;99086.81;5114501;27;20023;-74
2023/08/27 01:52:17;;;;;;;14.50;9.50;;;;;;;22.01;63.71;99084.75;5132858;27;20419;-74
2023/08/27 01:54:42;;;;;;;16.35;10.35;;;;;;;22.19;62.98;99089.44;5113327;27;20035;-75
2023/08/27 01:57:08;;;;;;;11.55;9.85;;;;;;;22.49;61.62;99085.88;5132631;27;20043;-75
2023/08/27 01:59:33;;;;;;;12.60;9.30;;;;;;;22.49;60.97;99085.03;5114304;27;20023;-74
2023/08/27 02:01:59;;;;;;;13.45;9.45;;;;;;;22.20;61.86;99089.00;5114289;27;20115;-75
2023/08/27 02:04:24;;;;;;;15.63;8.90;;;;;;;21.96;62.49;99088.88;5114194;27;20060;-75
2023/08/27 02:06:50;;;;;;;13.18;10.02;;;;;;;22.05;62.74;99081.84;5132533;27;20046;-75
2023/08/27 02:09:15;;;;;;;15.07;10.38;;;;;;;21.92;62.89;99076.69;5132498;27;20031;-74
2023/08/27 02:11:42;;;;;;;13.40;9.93;;;;;;;21.79;64.11;99092.69;5131179;27;20050;-75
2023/08/27 02:14:07;;;;;;;11.30;9.95;;;;;;;21.87;63.97;99086.50;5132400;27;20027;-75
2023/08/27 02:16:34;;;;;;;12.63;8.80;;;;;;;22.07;63.45;99087.94;5114146;27;20030;-75
2023/08/27 02:19:00;;;;;;;15.95;10.27;;;;;;;22.01;64.43;99087.59;5114088;27;20040;-75
2023/08/27 02:21:25;;;;;;;14.50;10.23;;;;;;;21.85;65.36;99099.56;5114322;27;20433;-75
2023/08/27 02:23:51;;;;;;;11.40;8.88;;;;;;;21.71;66.17;99095.59;5113956;27;20392;-75
2023/08/27 02:26:16;;;;;;;13.68;9.93;;;;;;;21.69;66.47;99097.28;5132317;27;20110;-74
2023/08/27 02:28:42;;;;;;;16.15;10.45;;;;;;;21.60;66.95;99087.13;5112911;27;20023;-74
2023/08/27 02:31:08;;;;;;;16.33;9.75;;;;;;;21.56;67.57;99085.56;5114780;27;20495;-75
2023/08/27 02:33:34;;;;;;;12.43;10.07;;;;;;;21.49;68.39;99089.28;5132244;27;20027;-74
2023/08/27 02:35:59;;;;;;;17.63;10.25;;;;;;;21.46;68.81;99082.38;5113641;27;20030;-74
2023/08/27 02:38:25;;;;;;;13.48;9.52;;;;;;;21.63;68.34;99084.69;5131839;27;20022;-74
2023/08/27 02:40:50;;;;;;;11.60;10.00;;;;;;;21.63;68.81;99091.19;5113346;27;20487;-74
2023/08/27 02:43:16;;;;;;;17.85;10.45;;;;;;;21.62;68.85;99089.56;5112912;28;20038;-74
2023/08/27 02:45:42;;;;;;;17.55;9.85;;;;;;;21.63;68.83;99079.81;5131970;27;20027;-74
2023/08/27 02:48:07;;;;;;;19.63;10.00;;;;;;;21.62;69.13;99083.06;5131984;27;20031;-74
2023/08/27 02:50:33;;;;;;;18.60;11.25;;;;;;;21.43;69.86;99088.91;5113255;28;20260;-74
2023/08/27 02:52:58;;;;;;;13.50;11.00;;;;;;;21.23;70.96;99082.16;5113572;28;20102;-74
2023/08/27 02:55:27;;;;;;;17.20;10.88;;;;;;;21.13;71.57;99089.53;5131772;28;20046;-74
2023/08/27 02:57:52;;;;;;;17.65;11.57;;;;;;;21.22;71.28;99081.34;5113484;28;20522;-74
2023/08/27 03:00:19;;;;;;;15.45;11.27;;;;;;;21.08;72.49;99082.25;5130643;28;20513;-74
2023/08/27 03:02:44;;;;;;;15.77;10.90;;;;;;;21.07;72.94;99086.31;5113457;28;20117;-74
2023/08/27 03:05:10;;;;;;;12.68;11.32;;;;;;;21.17;72.81;99091.13;5131867;28;20457;-74
2023/08/27 03:07:35;;;;;;;13.75;11.40;;;;;;;21.11;72.67;99084.25;5131846;28;20019;-74
2023/08/27 03:10:01;;;;;;;20.10;12.18;;;;;;;21.09;72.63;99080.25;5131695;28;20068;-74
2023/08/27 03:12:26;;;;;;;16.80;11.95;;;;;;;21.01;72.63;99077.44;5131750;28;20053;-74
2023/08/27 03:14:52;;;;;;;15.57;12.10;;;;;;;21.10;72.80;99090.38;5131740;28;20028;-74
2023/08/27 03:17:17;;;;;;;19.52;13.30;;;;;;;20.96;73.16;99094.13;5130390;28;20019;-74
2023/08/27 03:19:43;;;;;;;20.08;14.02;;;;;;;20.83;74.09;99083.22;5115063;28;20023;-74
2023/08/27 03:22:08;;;;;;;14.85;12.48;;;;;;;20.88;73.84;99079.97;5131489;27;20030;-74
2023/08/27 03:24:34;;;;;;;19.65;13.15;;;;;;;21.08;72.74;99087.16;5132267;27;20023;-74
2023/08/27 03:26:59;;;;;;;19.00;12.57;;;;;;;20.97;72.93;99084.38;5122218;28;20020;-74
2023/08/27 03:29:25;;;;;;;27.33;14.35;;;;;;;21.09;72.39;99085.91;5118687;27;20027;-74
2023/08/27 03:31:52;;;;;;;35.67;16.08;;;;;;;21.10;71.88;99079.81;5127369;28;20084;-77
2023/08/27 03:34:17;;;;;;;30.10;16.65;;;;;;;21.27;71.19;99089.44;5146837;27;20019;-74
2023/08/27 03:36:43;;;;;;;26.17;15.02;;;;;;;21.30;70.69;99082.09;5152202;27;20474;-75
2023/08/27 03:39:08;;;;;;;33.13;15.85;;;;;;;21.23;70.69;99088.66;5133725;27;20478;-76
2023/08/27 03:41:34;;;;;;;27.00;15.75;;;;;;;21.07;71.13;99077.78;5115489;28;20499;-76
2023/08/27 03:44:00;;;;;;;28.52;17.33;;;;;;;21.10;71.02;99079.00;5111046;28;20088;-74
2023/08/27 03:46:25;;;;;;;29.38;14.90;;;;;;;21.18;70.67;99081.38;5108184;27;20096;-74
2023/08/27 03:48:51;;;;;;;32.90;16.58;;;;;;;21.36;70.14;99080.44;5118657;27;20482;-78
2023/08/27 03:51:16;;;;;;;32.03;15.43;;;;;;;21.09;70.87;99080.25;5131464;27;20022;-74
2023/08/27 03:53:42;;;;;;;38.45;16.65;;;;;;;20.95;71.26;99084.78;5114966;28;20488;-74
2023/08/27 03:56:07;;;;;;;31.98;14.27;;;;;;;20.92;71.54;99084.81;5109577;27;20019;-75
2023/08/27 03:58:33;;;;;;;21.65;14.75;;;;;;;21.02;71.38;99081.09;5103869;27;20040;-75
2023/08/27 04:00:58;;;;;;;30.75;14.20;;;;;;;20.77;72.17;99074.28;5113166;28;20047;-74
2023/08/27 04:03:24;;;;;;;20.80;13.25;;;;;;;20.67;72.55;99080.84;5114493;28;20036;-75
2023/08/27 04:05:50;;;;;;;20.30;12.52;;;;;;;20.63;72.85;99080.06;5114020;28;20020;-75
2023/08/27 04:08:18;;;;;;;26.33;13.18;;;;;;;20.77;72.23;99090.56;5113071;28;20024;-75
2023/08/27 04:10:52;;;;;;;24.10;13.45;;;;;;;20.44;73.37;99093.53;5113841;28;20403;-75
2023/08/27 04:13:18;;;;;;;26.35;14.10;;;;;;;20.64;72.55;99097.94;5113833;28;20035;-74
2023/08/27 04:15:47;;;;;;;23.50;14.80;;;;;;;20.43;73.19;99091.91;5112937;27;20027;-74
2023/08/27 04:18:13;;;;;;;18.83;14.00;;;;;;;20.40;73.44;99101.25;5113730;28;20020;-75
2023/08/27 04:20:38;;;;;;;19.80;14.00;;;;;;;20.35;74.18;99098.84;5114006;28;20027;-74
2023/08/27 04:23:04;;;;;;;18.13;14.05;;;;;;;20.44;74.34;99106.94;5114191;28;20484;-74
2023/08/27 04:25:29;;;;;;;16.48;14.00;;;;;;;20.32;76.10;99103.31;5114135;28;20499;-74
2023/08/27 04:27:56;;;;;;;19.88;12.40;;;;;;;20.48;76.26;99119.06;5114011;28;20502;-74
2023/08/27 04:30:22;;;;;;;17.27;12.77;;;;;;;20.47;76.78;99115.44;5114014;28;20024;-75
2023/08/27 04:32:47;;;;;;;22.77;12.68;;;;;;;20.43;77.73;99113.84;5094957;28;20031;-74
2023/08/27 04:35:13;;;;;;;16.02;11.93;;;;;;;20.56;77.22;99109.31;5095547;28;20034;-75
2023/08/27 04:37:38;;;;;;;17.13;11.25;;;;;;;20.69;77.28;99108.84;5119186;27;20019;-75
2023/08/27 04:40:04;;;;;;;29.35;12.50;;;;;;;20.88;76.15;99108.38;5115989;27;20035;-75
2023/08/27 04:42:30;;;;;;;23.88;11.82;;;;;;;20.85;76.58;99112.03;5115882;27;20030;-74
2023/08/27 04:44:55;;;;;;;20.17;12.15;;;;;;;21.00;75.89;99103.44;5134474;27;20502;-74
2023/08/27 04:47:21;;;;;;;17.63;13.48;;;;;;;21.16;75.47;99106.59;5134324;27;20019;-75
2023/08/27 04:49:46;;;;;;;49.33;14.73;;;;;;;21.14;75.91;99103.34;5134784;27;20034;-75
2023/08/27 04:52:14;;;;;;;26.05;13.68;;;;;;;21.16;76.15;99112.28;5134132;27;20042;-74
2023/08/27 04:54:40;;;;;;;21.70;13.40;;;;;;;21.25;75.90;99102.47;5129626;27;20488;-74
2023/08/27 04:57:05;;;;;;;25.58;14.80;;;;;;;21.35;75.33;99098.72;5094863;28;20047;-74
2023/08/27 04:59:31;;;;;;;46.35;24.42;;;;;;;21.39;75.30;99095.84;5113507;28;20028;-75
2023/08/27 05:01:59;;;;;;;28.60;14.80;;;;;;;21.61;73.71;99102.19;5113106;28;20031;-74
2023/08/27 05:04:26;;;;;;;25.77;13.23;;;;;;;21.59;73.22;99105.44;5095106;28;20080;-74
2023/08/27 05:06:52;;;;;;;18.27;15.85;;;;;;;21.49;73.12;99100.66;5113284;28;20019;-74
2023/08/27 05:09:17;;;;;;;58.90;39.00;;;;;;;21.57;72.77;99107.91;5113292;28;20400;-75
2023/08/27 05:11:43;;;;;;;34.42;20.98;;;;;;;21.55;72.91;99107.53;5094228;28;20013;-75
2023/08/27 05:14:08;;;;;;;19.30;13.63;;;;;;;21.53;73.70;99112.78;5094930;28;20091;-75
2023/08/27 05:16:35;;;;;;;22.17;14.60;;;;;;;21.77;73.38;99115.09;5094773;28;20015;-74
2023/08/27 05:19:00;;;;;;;22.05;13.48;;;;;;;21.90;72.66;99107.63;5094836;28;20027;-75
2023/08/27 05:21:26;;;;;;;42.83;13.57;;;;;;;22.05;71.93;99108.31;5112927;28;20503;-74
2023/08/27 05:23:52;;;;;;;35.88;14.55;;;;;;;22.26;71.09;99117.84;5094751;28;20016;-74
2023/08/27 05:26:18;;;;;;;20.67;12.93;;;;;;;22.25;70.86;99101.97;5112762;28;20556;-75
2023/08/27 05:28:43;;;;;;;28.83;16.48;;;;;;;22.36;69.95;99116.13;5112288;27;20024;-75
2023/08/27 05:31:09;;;;;;;31.02;13.00;;;;;;;22.33;70.19;99114.13;5112764;28;20496;-75
2023/08/27 05:33:34;;;;;;;19.65;12.20;;;;;;;22.51;69.19;99106.19;5112770;28;20403;-75
2023/08/27 05:36:00;;;;;;;18.13;12.07;;;;;;;22.61;68.54;99109.34;5094419;28;20023;-74
2023/08/27 05:38:25;;;;;;;22.83;12.00;;;;;;;22.57;68.51;99098.78;5112786;28;20072;-74
2023/08/27 05:40:51;;;;;;;28.98;11.88;;;;;;;22.73;68.06;99103.06;5094411;28;20463;-74
2023/08/27 05:43:16;;;;;;;20.92;11.85;;;;;;;22.98;67.39;99097.00;5112605;28;20015;-75
2023/08/27 05:45:42;;;;;;;17.45;12.40;;;;;;;23.05;66.91;99098.16;5094242;28;20030;-75
2023/08/27 05:48:07;;;;;;;17.80;11.55;;;;;;;23.08;66.92;99094.44;5112380;28;20035;-75
2023/08/27 05:50:34;;;;;;;14.70;10.70;;;;;;;23.29;66.71;99093.34;5094199;28;20027;-75
2023/08/27 05:52:59;;;;;;;13.50;11.18;;;;;;;23.34;66.24;99101.41;5114019;27;20043;-74
2023/08/27 05:55:25;;;;;;;14.68;11.50;;;;;;;23.32;65.88;99094.50;5132980;27;20122;-75
2023/08/27 05:57:50;;;;;;;14.82;11.30;;;;;;;23.26;65.07;99085.59;5111379;28;20063;-75
2023/08/27 06:00:16;;;;;;;25.70;12.63;;;;;;;23.29;65.15;99101.91;5112414;28;20093;-74
2023/08/27 06:02:42;;;;;;;23.77;12.45;;;;;;;23.48;64.50;99088.97;5112214;28;20019;-74
2023/08/27 06:05:07;;;;;;;18.80;12.60;;;;;;;23.70;63.61;99092.25;5112205;28;20031;-74
2023/08/27 06:07:33;;;;;;;21.27;12.38;;;;;;;23.85;62.82;99103.41;5109085;28;20572;-74
2023/08/27 06:09:58;;;;;;;16.10;11.18;;;;;;;23.73;63.14;99104.03;5103704;28;20073;-75
2023/08/27 06:12:24;;;;;;;16.42;11.18;;;;;;;23.86;62.52;99098.50;5091106;28;20038;-74
2023/08/27 06:14:49;;;;;;;18.88;12.68;;;;;;;23.87;62.58;99100.13;5091784;28;20020;-74
2023/08/27 06:17:15;;;;;;;13.57;10.98;;;;;;;23.84;62.37;99104.66;5091681;28;20020;-74
2023/08/27 06:19:40;;;;;;;17.67;11.52;;;;;;;23.86;62.70;99098.50;5091668;28;20023;-74
2023/08/27 06:22:06;;;;;;;18.45;10.20;;;;;;;24.16;61.57;99089.00;5091869;28;20032;-72
2023/08/27 06:24:31;;;;;;;15.38;11.30;;;;;;;24.27;61.16;99099.41;5091315;28;20032;-71
2023/08/27 06:26:56;;;;;;;47.10;12.20;;;;;;;24.45;60.60;99094.13;5090533;28;20020;-71
2023/08/27 06:29:22;;;;;;;13.30;10.38;;;;;;;24.70;59.21;99092.78;5091646;28;20028;-72
2023/08/27 06:31:47;;;;;;;14.68;11.15;;;;;;;24.65;59.05;99096.19;5089736;28;20028;-72
2023/08/27 06:34:13;;;;;;;16.80;11.82;;;;;;;25.05;58.18;99103.94;5089289;28;20036;-72
2023/08/27 06:36:39;;;;;;;17.90;11.05;;;;;;;25.06;57.96;99097.75;5090122;28;20020;-71
2023/08/27 06:39:04;;;;;;;16.35;10.73;;;;;;;25.33;56.80;99105.28;5090005;28;20039;-71
2023/08/27 06:41:30;;;;;;;15.38;10.40;;;;;;;25.15;56.45;99102.06;5099212;28;20491;-71
2023/08/27 06:43:55;;;;;;;13.15;9.68;;;;;;;25.44;55.38;99089.91;5110207;28;20468;-72
2023/08/27 06:46:21;;;;;;;17.17;11.20;;;;;;;25.78;54.58;99100.13;5111428;28;20061;-72
2023/08/27 06:48:46;;;;;;;14.38;9.88;;;;;;;26.05;53.74;99090.41;5109483;28;20032;-72
2023/08/27 06:51:12;;;;;;;11.63;9.63;;;;;;;26.08;52.73;99095.25;5091079;28;20043;-72
2023/08/27 06:53:37;;;;;;;10.32;9.23;;;;;;;26.24;52.29;99102.22;5089883;28;20024;-72
2023/08/27 06:56:03;;;;;;;25.58;10.60;;;;;;;26.54;51.99;99083.75;5091173;28;20484;-71
2023/08/27 06:58:29;;;;;;;21.20;10.07;;;;;;;26.57;51.19;99076.31;5106268;28;20105;-71
2023/08/27 07:00:55;;;;;;;15.48;9.60;;;;;;;27.00;50.77;99077.09;5111507;28;20107;-72
2023/08/27 07:03:20;;;;;;;17.92;10.13;;;;;;;27.16;51.50;99090.53;5111434;28;20032;-71
2023/08/27 07:05:46;;;;;;;15.85;8.98;;;;;;;27.20;50.89;99079.72;5099654;28;20035;-71
2023/08/27 07:08:11;;;;;;;10.80;8.68;;;;;;;27.48;49.37;99068.56;5132174;28;20083;-71
2023/08/27 07:10:37;;;;;;;14.20;9.48;;;;;;;27.72;48.27;99080.50;5113488;28;20030;-72
2023/08/27 07:13:04;;;;;;;12.73;9.07;;;;;;;27.94;47.67;99074.00;5131761;28;20030;-71
2023/08/27 07:15:30;;;;;;;14.93;9.60;;;;;;;28.06;46.49;99071.56;5131993;28;20058;-72
2023/08/27 07:17:55;;;;;;;11.50;7.53;;;;;;;27.61;47.00;99077.97;5113315;28;20051;-72
2023/08/27 07:20:23;;;;;;;10.88;8.25;;;;;;;28.03;47.02;99081.91;5131818;28;20027;-72
2023/08/27 07:22:48;;;;;;;12.00;8.32;;;;;;;28.09;47.69;99074.28;5114896;28;20110;-72
2023/08/27 07:25:14;;;;;;;12.80;8.32;;;;;;;28.11;48.82;99073.81;5096831;28;20110;-72
2023/08/27 07:27:39;;;;;;;13.60;9.13;;;;;;;27.60;47.39;99076.38;5115473;28;20019;-72
2023/08/27 07:30:06;;;;;;;10.45;9.30;;;;;;;27.94;47.22;99070.31;5115373;28;20035;-72
2023/08/27 07:32:31;;;;;;;10.52;8.27;;;;;;;28.29;47.62;99068.25;5096984;28;20024;-71
2023/08/27 07:34:57;;;;;;;14.52;8.10;;;;;;;28.36;46.23;99064.31;5115075;28;20404;-71
2023/08/27 07:37:22;;;;;;;14.25;8.43;;;;;;;28.23;48.00;99069.31;5097886;28;20125;-72
2023/08/27 07:39:48;;;;;;;9.43;7.93;;;;;;;28.61;46.09;99068.31;5114490;28;20085;-72
2023/08/27 07:42:13;;;;;;;14.95;9.00;;;;;;;28.53;45.81;99070.63;5114990;28;20030;-71
2023/08/27 07:44:39;;;;;;;10.35;6.70;;;;;;;28.55;44.40;99073.06;5115383;28;20102;-72
2023/08/27 07:47:05;;;;;;;12.90;8.27;;;;;;;28.84;43.91;99051.81;5114854;28;20031;-71
2023/08/27 07:49:30;;;;;;;12.80;7.50;;;;;;;29.09;42.84;99067.31;5114336;27;20051;-72
2023/08/27 07:51:55;;;;;;;11.45;7.68;;;;;;;28.84;43.50;99055.53;5114875;28;20031;-72
2023/08/27 07:54:21;;;;;;;18.88;9.10;;;;;;;29.06;43.03;99063.31;5114769;28;20030;-72
2023/08/27 07:56:46;;;;;;;12.70;7.30;;;;;;;28.54;43.77;99062.81;5114577;28;20030;-72
2023/08/27 07:59:12;;;;;;;18.80;8.35;;;;;;;28.44;43.32;99061.97;5114201;27;20045;-72
2023/08/27 08:01:38;;;;;;;11.07;7.22;;;;;;;28.77;42.52;99064.41;5115006;27;20034;-72
2023/08/27 08:04:03;;;;;;;20.38;7.93;;;;;;;28.92;42.63;99050.28;5102843;28;20031;-72
2023/08/27 08:06:29;;;;;;;8.27;7.43;;;;;;;29.15;42.10;99048.13;5095610;28;20038;-73
2023/08/27 08:08:54;;;;;;;7.90;6.95;;;;;;;29.26;41.42;99044.81;5096230;28;20104;-72
2023/08/27 08:11:20;;;;;;;9.65;7.63;;;;;;;29.09;41.60;99056.59;5114506;28;20031;-72
2023/08/27 08:13:46;;;;;;;24.60;8.27;;;;;;;29.48;42.78;99056.28;5096062;28;20051;-72
2023/08/27 08:16:11;;;;;;;11.85;7.32;;;;;;;29.26;41.48;99054.25;5114671;28;20080;-72
2023/08/27 08:18:37;;;;;;;10.10;7.55;;;;;;;29.15;41.50;99053.91;5095732;28;20027;-71
2023/08/27 08:21:02;;;;;;;8.07;7.22;;;;;;;29.73;40.94;99048.63;5114260;28;20024;-73
2023/08/27 08:23:28;;;;;;;12.18;6.60;;;;;;;29.68;40.23;99040.59;5113542;28;20042;-73
2023/08/27 08:25:54;;;;;;;11.07;6.50;;;;;;;30.00;41.35;99058.56;5114196;28;20028;-73
2023/08/27 08:28:19;;;;;;;13.38;8.27;;;;;;;30.24;41.65;99053.00;5114113;28;20028;-72
2023/08/27 08:30:49;;;;;;;12.40;7.63;;;;;;;30.25;39.76;99045.13;5095704;28;20024;-72
2023/08/27 08:33:15;;;;;;;17.58;8.23;;;;;;;30.38;40.78;99048.66;5114110;28;20031;-73
2023/08/27 08:35:41;;;;;;;13.50;7.35;;;;;;;30.72;40.17;99042.19;5113333;28;20523;-72
2023/08/27 08:38:07;;;;;;;47.47;9.73;;;;;;;30.31;39.01;99033.75;5114071;28;20109;-72
2023/08/27 08:40:38;;;;;;;12.15;7.15;;;;;;;30.77;38.60;99044.41;5103458;27;20430;-73
2023/08/27 08:43:06;;;;;;;14.48;8.10;;;;;;;30.71;38.75;99040.59;5116371;27;20038;-71
2023/08/27 08:45:59;;;;;;;10.63;6.63;;;;;;;30.58;38.73;99038.69;5115847;27;20030;-72
2023/08/27 08:48:26;;;;;;;13.75;7.90;;;;;;;31.08;39.41;99035.50;5134255;27;20417;-73
2023/08/27 08:50:53;;;;;;;14.65;7.47;;;;;;;31.11;37.97;99036.59;5134197;27;20071;-72
2023/08/27 08:53:25;;;;;;;12.25;7.18;;;;;;;31.37;38.00;99033.28;5134229;27;20023;-72
2023/08/27 08:55:57;;;;;;;9.15;6.82;;;;;;;31.46;37.29;99023.78;5123195;27;20035;-71
2023/08/27 08:58:28;;;;;;;8.75;6.97;;;;;;;31.73;37.98;99025.66;5112991;27;20051;-72
2023/08/27 09:00:57;;;;;;;11.82;7.00;;;;;;;32.04;37.33;99027.38;5113601;28;20618;-73
2023/08/27 09:03:24;;;;;;;15.27;7.13;;;;;;;32.08;36.22;99019.28;5113512;28;20027;-73
2023/08/27 09:05:54;;;;;;;10.88;7.15;;;;;;;32.16;35.50;99011.06;5113941;27;20040;-72
2023/08/27 09:08:19;;;;;;;9.85;6.22;;;;;;;32.20;34.58;99010.84;5110682;28;20027;-72
2023/08/27 09:10:48;;;;;;;11.38;6.57;;;;;;;32.25;36.36;99009.34;5092289;28;20028;-72
2023/08/27 09:13:19;;;;;;;11.48;6.95;;;;;;;32.50;34.95;99005.13;5110924;28;20023;-72
2023/08/27 09:15:44;;;;;;;10.90;6.43;;;;;;;32.77;35.05;99006.91;5110038;28;20065;-72
2023/08/27 09:18:10;;;;;;;13.77;6.20;;;;;;;32.56;35.52;99008.88;5091549;28;20051;-71
2023/08/27 09:20:36;;;;;;;10.43;6.65;;;;;;;32.84;34.80;98999.91;5110462;28;20028;-73
2023/08/27 09:23:02;;;;;;;9.23;6.75;;;;;;;33.15;35.04;99001.44;5111989;27;20051;-72
2023/08/27 09:25:27;;;;;;;8.77;6.47;;;;;;;33.12;34.81;98987.97;5130795;27;20023;-72
2023/08/27 09:27:53;;;;;;;10.48;5.93;;;;;;;33.09;34.10;98989.00;5111539;27;20034;-72
2023/08/27 09:30:21;;;;;;;8.63;6.93;;;;;;;33.10;33.94;98984.78;5111246;27;20503;-72
2023/08/27 09:32:47;;;;;;;8.27;6.22;;;;;;;33.16;32.94;98979.06;5112282;27;20037;-72
2023/08/27 09:35:12;;;;;;;8.88;6.05;;;;;;;33.34;32.88;98966.41;5129110;27;20031;-72
2023/08/27 09:37:40;;;;;;;8.13;5.50;;;;;;;33.48;32.37;98976.34;5131041;27;20043;-72
2023/08/27 09:40:10;;;;;;;9.32;5.95;;;;;;;33.48;32.11;98976.34;5110892;27;20075;-72
2023/08/27 09:42:37;;;;;;;8.73;5.57;;;;;;;33.56;31.89;98976.75;5109144;27;20042;-71
2023/08/27 09:45:03;;;;;;;12.20;6.40;;;;;;;33.57;32.21;98975.44;5091590;28;20062;-73
2023/08/27 09:47:33;;;;;;;8.90;6.40;;;;;;;33.10;31.56;98967.41;5108777;27;20415;-72
2023/08/27 09:50:27;;;;;;;7.43;6.05;;;;;;;33.32;31.91;98966.13;5090940;28;20079;-72
2023/08/27 09:52:52;;;;;;;6.65;5.80;;;;;;;33.29;31.47;98970.84;5121705;27;20035;-71
2023/08/27 09:55:18;;;;;;;11.55;5.88;;;;;;;33.46;30.55;98959.50;5130259;27;20023;-71
2023/08/27 09:57:50;;;;;;;9.13;5.82;;;;;;;33.71;29.82;98965.88;5130100;27;20078;-72
2023/08/27 10:00:17;;;;;;;7.90;4.50;;;;;;;33.71;30.53;98957.16;5130115;27;20695;-72
2023/08/27 10:02:44;;;;;;;9.52;5.32;;;;;;;33.77;30.51;98957.22;5112043;27;20571;-73
2023/08/27 10:05:10;;;;;;;11.43;5.63;;;;;;;33.72;31.25;98950.06;5130017;27;20402;-72
2023/08/27 10:07:35;;;;;;;7.65;6.07;;;;;;;33.99;30.87;98956.72;5112394;27;20046;-72
2023/08/27 10:10:05;;;;;;;9.45;5.07;;;;;;;34.06;30.59;98945.97;5091524;28;20504;-71
2023/08/27 10:12:31;;;;;;;9.57;6.85;;;;;;;34.10;29.96;98956.03;5105706;27;20027;-75
2023/08/27 10:14:59;;;;;;;5.15;4.50;;;;;;;34.27;28.31;98946.69;5119978;27;20028;-75
2023/08/27 10:17:24;;;;;;;11.23;6.07;;;;;;;34.46;29.43;98949.25;5119699;27;20038;-78
2023/08/27 10:19:51;;;;;;;6.65;5.57;;;;;;;33.88;29.52;98945.75;5109213;27;20027;-77
2023/08/27 10:22:19;;;;;;;6.00;5.40;;;;;;;34.07;29.60;98945.44;5091072;28;20130;-80
2023/08/27 10:24:46;;;;;;;14.48;6.40;;;;;;;34.04;29.61;98952.28;5109591;28;20903;-76
2023/08/27 10:27:12;;;;;;;6.68;5.35;;;;;;;34.43;29.11;98942.34;5108711;28;20015;-79
2023/08/27 10:29:37;;;;;;;7.55;5.72;;;;;;;34.76;28.88;98946.88;5107709;27;20023;-76
2023/08/27 10:32:04;;;;;;;7.03;5.00;;;;;;;34.88;28.61;98935.34;5091215;28;20027;-79
2023/08/27 10:34:30;;;;;;;11.60;6.88;;;;;;;34.64;29.64;98927.78;5110380;27;20080;-77
2023/08/27 10:37:01;;;;;;;8.52;5.30;;;;;;;34.58;28.66;98937.22;5111968;27;20038;-76
2023/08/27 10:39:30;;;;;;;6.72;5.30;;;;;;;34.94;28.41;98934.06;5127623;27;20031;-75
2023/08/27 10:41:55;;;;;;;16.42;6.13;;;;;;;34.89;27.53;98929.00;5125388;27;20099;-75
2023/08/27 10:44:22;;;;;;;7.95;5.10;;;;;;;34.98;27.51;98933.78;5109757;28;20359;-76
2023/08/27 10:47:17;;;;;;;6.80;5.22;;;;;;;34.93;26.72;98929.53;5094164;27;20799;-74
2023/08/27 10:49:48;;;;;;;5.95;4.55;;;;;;;34.56;26.94;98925.34;5110944;27;20030;-78
2023/08/27 10:52:18;;;;;;;5.25;4.50;;;;;;;34.61;27.20;98917.19;5095945;27;20038;-76
2023/08/27 10:54:48;;;;;;;6.75;4.53;;;;;;;34.92;27.32;98915.56;5124035;27;20033;-77
2023/08/27 10:57:22;;;;;;;6.93;4.90;;;;;;;35.12;26.62;98903.81;5108743;27;20036;-75
2023/08/27 10:59:49;;;;;;;8.27;4.82;;;;;;;35.51;26.61;98902.38;5108636;28;20072;-78
2023/08/27 11:02:17;;;;;;;4.88;4.18;;;;;;;35.32;26.73;98899.16;5090444;28;20047;-74
2023/08/27 11:04:48;;;;;;;7.70;4.83;;;;;;;35.47;25.95;98907.66;5091322;28;20408;-75
2023/08/27 11:07:19;;;;;;;5.85;4.32;;;;;;;35.39;24.98;98906.56;5109317;28;20031;-75
2023/08/27 11:10:03;;;;;;;10.27;5.07;;;;;;;35.17;25.36;98902.25;5101909;28;20258;-78
2023/08/27 11:12:34;;;;;;;6.75;4.82;;;;;;;35.28;25.56;98904.41;5109330;28;20514;-76
2023/08/27 11:15:14;;;;;;;9.52;4.45;;;;;;;35.16;24.89;98899.88;5108699;28;20031;-75
2023/08/27 11:17:41;;;;;;;7.30;5.03;;;;;;;35.34;25.18;98892.81;5126098;28;20106;-75
2023/08/27 11:20:25;;;;;;;5.40;4.20;;;;;;;35.66;25.77;98893.47;5128930;28;20448;-78
2023/08/27 11:22:59;;;;;;;16.00;5.00;;;;;;;35.66;24.70;98893.47;5129259;28;20566;-76